createdAt,value
2018-11-13T00:00:24.394Z,6.23
2018-11-13T00:02:53.334Z,9.00
2018-11-13T00:05:22.219Z,5.70
2018-11-13T00:07:51.055Z,6.90
2018-11-13T00:10:19.449Z,6.03
2018-11-13T00:12:47.938Z,5.30
2018-11-13T00:15:17.360Z,6.10
2018-11-13T00:17:45.943Z,5.07
2018-11-13T00:20:15.290Z,5.33
2018-11-13T00:22:44.046Z,5.07
2018-11-13T00:25:13.671Z,5.73
2018-11-13T00:27:42.976Z,4.93
2018-11-13T00:30:14.404Z,4.07
2018-11-13T00:32:43.500Z,6.97
2018-11-13T00:35:13.123Z,4.60
2018-11-13T00:37:42.593Z,4.20
2018-11-13T00:40:11.723Z,4.70
2018-11-13T00:42:41.254Z,5.23
2018-11-13T00:45:09.876Z,6.57
2018-11-13T00:47:38.591Z,5.30
2018-11-13T00:50:08.999Z,9.87
2018-11-13T00:52:38.139Z,6.17
2018-11-13T00:55:06.754Z,5.23
2018-11-13T00:57:36.009Z,4.83
2018-11-13T01:00:06.573Z,4.43
2018-11-13T01:02:34.802Z,4.93
2018-11-13T01:05:03.915Z,6.00
2018-11-13T01:07:32.196Z,5.90
2018-11-13T01:10:00.895Z,4.83
2018-11-13T01:12:29.555Z,4.47
2018-11-13T01:14:58.318Z,5.37
2018-11-13T01:17:27.121Z,5.57
2018-11-13T01:19:55.787Z,3.40
2018-11-13T01:22:24.480Z,3.70
2018-11-13T01:24:53.142Z,5.37
2018-11-13T01:27:21.614Z,3.37
2018-11-13T01:29:56.475Z,3.80
2018-11-13T01:32:26.266Z,4.30
2018-11-13T01:34:54.544Z,3.97
2018-11-13T01:37:23.247Z,10.33
2018-11-13T01:39:51.806Z,6.40
2018-11-13T01:42:20.319Z,5.13
2018-11-13T01:44:49.133Z,6.97
2018-11-13T01:47:17.765Z,6.10
2018-11-13T01:49:46.475Z,7.70
2018-11-13T01:52:14.939Z,7.83
2018-11-13T01:54:43.359Z,8.27
2018-11-13T01:57:12.757Z,6.77
2018-11-13T01:59:41.121Z,5.17
2018-11-13T02:02:09.822Z,5.57
2018-11-13T02:04:38.485Z,5.50
2018-11-13T02:07:08.095Z,7.67
2018-11-13T02:09:36.948Z,6.43
2018-11-13T02:12:05.572Z,5.07
2018-11-13T02:14:34.841Z,5.33
2018-11-13T02:17:03.187Z,5.00
2018-11-13T02:19:31.768Z,5.70
2018-11-13T02:22:00.032Z,4.90
2018-11-13T02:24:28.931Z,4.73
2018-11-13T02:26:58.093Z,5.80
2018-11-13T02:29:26.948Z,4.97
2018-11-13T02:31:56.455Z,4.00
2018-11-13T02:34:25.039Z,6.97
2018-11-13T02:36:53.516Z,4.93
2018-11-13T02:39:21.768Z,3.70
2018-11-13T02:41:50.431Z,3.83
2018-11-13T02:44:19.111Z,2.93
2018-11-13T02:46:47.417Z,3.87
2018-11-13T02:49:16.309Z,5.07
2018-11-13T02:51:45.077Z,5.20
2018-11-13T02:54:13.575Z,3.43
2018-11-13T02:56:43.249Z,4.00
2018-11-13T02:59:11.524Z,2.73
2018-11-13T03:01:39.783Z,4.03
2018-11-13T03:04:09.010Z,4.63
2018-11-13T03:06:37.251Z,3.87
2018-11-13T03:09:06.607Z,5.00
2018-11-13T03:11:34.882Z,4.00
2018-11-13T03:14:03.320Z,2.57
2018-11-13T03:16:32.103Z,3.97
2018-11-13T03:19:00.791Z,4.63
2018-11-13T03:21:29.840Z,3.40
2018-11-13T03:23:58.983Z,4.43
2018-11-13T03:26:27.681Z,5.00
2018-11-13T03:28:56.463Z,3.60
2018-11-13T03:31:25.264Z,3.00
2018-11-13T03:33:53.491Z,3.10
2018-11-13T03:36:22.624Z,3.80
2018-11-13T03:38:51.308Z,2.73
2018-11-13T03:41:19.560Z,4.53
2018-11-13T03:43:47.991Z,3.20
2018-11-13T03:46:16.222Z,3.47
2018-11-13T03:48:45.036Z,5.33
2018-11-13T03:51:13.616Z,4.60
2018-11-13T03:53:41.863Z,4.53
2018-11-13T03:56:10.504Z,4.63
2018-11-13T03:58:39.883Z,4.97
2018-11-13T04:01:08.288Z,4.47
2018-11-13T04:03:36.959Z,3.73
2018-11-13T04:06:05.371Z,4.30
2018-11-13T04:08:33.645Z,2.17
2018-11-13T04:11:02.568Z,3.70
2018-11-13T04:13:32.077Z,4.23
2018-11-13T04:16:00.808Z,4.80
2018-11-13T04:18:29.874Z,5.67
2018-11-13T04:20:58.559Z,3.10
2018-11-13T04:23:27.384Z,3.37
2018-11-13T04:25:56.066Z,5.40
2018-11-13T04:28:25.244Z,4.50
2018-11-13T04:30:54.051Z,4.77
2018-11-13T04:33:23.613Z,4.87
2018-11-13T04:35:52.735Z,4.60
2018-11-13T04:38:21.276Z,4.37
2018-11-13T04:40:50.401Z,4.63
2018-11-13T04:43:19.203Z,6.13
2018-11-13T04:45:48.442Z,4.67
2018-11-13T04:48:17.118Z,3.87
2018-11-13T04:50:45.430Z,3.97
2018-11-13T04:53:13.658Z,5.20
2018-11-13T04:55:42.650Z,4.70
2018-11-13T04:58:10.907Z,2.57
2018-11-13T05:00:39.926Z,4.30
2018-11-13T05:03:08.508Z,6.60
2018-11-13T05:05:37.368Z,4.33
2018-11-13T05:08:06.545Z,6.27
2018-11-13T05:10:35.437Z,4.37
2018-11-13T05:13:04.401Z,5.03
2018-11-13T05:15:33.126Z,5.20
2018-11-13T05:18:02.362Z,4.87
2018-11-13T05:20:31.124Z,5.07
2018-11-13T05:23:00.210Z,5.17
2018-11-13T05:25:29.627Z,5.70
2018-11-13T05:27:58.592Z,4.00
2018-11-13T05:30:27.448Z,5.53
2018-11-13T05:32:56.515Z,3.60
2018-11-13T05:35:24.996Z,8.33
2018-11-13T05:37:53.226Z,5.50
2018-11-13T05:40:22.934Z,5.33
2018-11-13T05:42:51.543Z,5.97
2018-11-13T05:45:21.462Z,5.17
2018-11-13T05:47:49.976Z,5.90
2018-11-13T05:50:19.030Z,7.87
2018-11-13T05:52:48.704Z,6.43
2018-11-13T05:55:17.194Z,4.77
2018-11-13T05:57:45.467Z,5.27
2018-11-13T06:00:17.923Z,7.00
2018-11-13T06:02:47.710Z,8.17
2018-11-13T06:05:16.885Z,7.07
2018-11-13T06:07:45.496Z,7.17
2018-11-13T06:10:14.617Z,7.70
2018-11-13T06:12:43.922Z,5.97
2018-11-13T06:15:12.584Z,6.37
2018-11-13T06:17:41.215Z,5.97
2018-11-13T06:20:11.019Z,5.30
2018-11-13T06:22:39.590Z,5.40
2018-11-13T06:25:10.421Z,6.00
2018-11-13T06:27:40.010Z,5.97
2018-11-13T06:30:10.934Z,5.57
2018-11-13T06:32:40.047Z,6.27
2018-11-13T06:35:08.487Z,5.17
2018-11-13T06:37:36.830Z,3.97
2018-11-13T06:40:06.038Z,7.77
2018-11-13T06:42:34.476Z,4.63
2018-11-13T06:45:02.922Z,1.90
2018-11-13T06:47:31.419Z,1.67
2018-11-13T06:49:59.674Z,1.60
2018-11-13T06:52:27.918Z,0.90
2018-11-13T06:54:59.244Z,1.37
2018-11-13T06:57:29.162Z,1.80
2018-11-13T06:59:57.477Z,1.53
2018-11-13T07:02:25.870Z,0.60
2018-11-13T07:04:54.353Z,1.07
2018-11-13T07:07:22.874Z,1.03
2018-11-13T07:09:51.303Z,1.13
2018-11-13T07:12:19.643Z,0.40
2018-11-13T07:14:47.928Z,0.77
2018-11-13T07:17:16.202Z,0.63
2018-11-13T07:19:44.375Z,0.73
2018-11-13T07:22:12.671Z,0.67
2018-11-13T07:24:40.851Z,68.60
2018-11-13T07:27:09.034Z,15.43
2018-11-13T07:29:37.266Z,3.10
2018-11-13T07:32:05.734Z,3.43
2018-11-13T07:34:34.322Z,4.53
2018-11-13T07:37:02.912Z,7.67
2018-11-13T07:39:31.634Z,7.90
2018-11-13T07:41:59.887Z,7.27
2018-11-13T07:44:29.157Z,15.27
2018-11-13T07:46:57.373Z,13.97
2018-11-13T07:49:25.642Z,18.10
2018-11-13T07:51:53.878Z,8.30
2018-11-13T07:54:22.190Z,4.67
2018-11-13T07:56:50.462Z,1.93
2018-11-13T07:59:18.936Z,1.03
2018-11-13T08:01:47.699Z,2.43
2018-11-13T08:04:15.942Z,3.50
2018-11-13T08:06:44.813Z,4.03
2018-11-13T08:09:13.363Z,2.03
2018-11-13T08:11:42.250Z,3.53
2018-11-13T08:14:10.546Z,2.80
2018-11-13T08:16:38.839Z,3.30
2018-11-13T08:19:07.021Z,1.57
2018-11-13T08:21:35.374Z,1.90
2018-11-13T08:24:03.627Z,0.50
2018-11-13T08:26:31.828Z,0.70
2018-11-13T08:29:00.505Z,11.80
2018-11-13T08:31:28.995Z,6.07
2018-11-13T08:33:57.767Z,4.13
2018-11-13T08:36:26.031Z,7.53
2018-11-13T08:38:54.479Z,32.20
2018-11-13T08:41:22.739Z,15.67
2018-11-13T08:43:51.015Z,18.60
2018-11-13T08:46:19.237Z,21.87
2018-11-13T08:48:47.542Z,3.03
2018-11-13T08:51:16.896Z,30.20
2018-11-13T08:53:45.138Z,3.00
2018-11-13T08:56:13.404Z,3.03
2018-11-13T08:58:41.608Z,2.17
2018-11-13T09:01:09.779Z,3.60
2018-11-13T09:03:38.502Z,7.70
2018-11-13T09:06:06.786Z,3.97
2018-11-13T09:08:35.334Z,10.53
2018-11-13T09:11:03.532Z,5.77
2018-11-13T09:13:31.787Z,8.87
2018-11-13T09:16:00.348Z,8.03
2018-11-13T09:18:28.878Z,34.17
2018-11-13T09:20:57.423Z,28.60
2018-11-13T09:23:25.755Z,127.03
2018-11-13T09:25:53.926Z,3.63
2018-11-13T09:28:22.411Z,2.77
2018-11-13T09:30:51.309Z,5.80
2018-11-13T09:33:20.387Z,8.37
2018-11-13T09:35:50.058Z,5.13
2018-11-13T09:38:18.271Z,0.77
2018-11-13T09:40:46.500Z,1.57
2018-11-13T09:43:14.809Z,1.47
2018-11-13T09:45:43.266Z,2.17
2018-11-13T09:48:11.486Z,2.20
2018-11-13T09:50:39.810Z,1.97
2018-11-13T09:53:07.947Z,1.60
2018-11-13T09:55:36.201Z,2.87
2018-11-13T09:58:04.432Z,0.57
2018-11-13T10:00:32.875Z,1.67
2018-11-13T10:03:02.246Z,3.53
2018-11-13T10:05:29.988Z,2.77
2018-11-13T10:07:58.375Z,4.10
2018-11-13T10:10:27.434Z,3.27
2018-11-13T10:12:56.133Z,1.47
2018-11-13T10:15:28.683Z,3.30
2018-11-13T10:17:57.036Z,1.00
2018-11-13T10:20:25.088Z,2.97
2018-11-13T10:22:54.490Z,2.10
2018-11-13T10:25:22.781Z,2.70
2018-11-13T10:27:51.158Z,1.93
2018-11-13T10:30:20.850Z,1.10
2018-11-13T10:32:50.007Z,2.20
2018-11-13T10:35:19.837Z,3.40
2018-11-13T10:37:48.299Z,4.93
2018-11-13T10:40:18.087Z,2.53
2018-11-13T10:42:46.330Z,1.97
2018-11-13T10:45:17.521Z,4.23
2018-11-13T10:47:45.871Z,3.20
2018-11-13T10:50:16.085Z,2.30
2018-11-13T10:52:44.345Z,1.67
2018-11-13T10:55:13.370Z,4.07
2018-11-13T10:57:42.091Z,0.70
2018-11-13T11:00:19.466Z,2.37
2018-11-13T11:02:53.752Z,1.23
2018-11-13T11:05:24.143Z,0.83
2018-11-13T11:07:52.630Z,0.87
2018-11-13T11:10:21.026Z,0.10
2018-11-13T11:12:49.362Z,1.43
2018-11-13T11:15:17.972Z,1.30
2018-11-13T11:17:47.331Z,1.60
2018-11-13T11:20:15.570Z,0.73
2018-11-13T11:22:44.617Z,1.13
2018-11-13T11:25:13.981Z,0.37
2018-11-13T11:27:42.548Z,1.67
2018-11-13T11:30:14.335Z,0.37
2018-11-13T11:32:43.818Z,1.60
2018-11-13T11:35:12.627Z,0.37
2018-11-13T11:37:41.767Z,5.90
2018-11-13T11:40:11.339Z,3.90
2018-11-13T11:42:40.784Z,5.17
2018-11-13T11:45:12.600Z,5.30
2018-11-13T11:47:41.117Z,4.20
2018-11-13T11:50:11.552Z,3.10
2018-11-13T11:52:39.965Z,0.73
2018-11-13T11:55:08.700Z,1.90
2018-11-13T11:57:37.300Z,19.50
2018-11-13T12:00:09.444Z,3.73
2018-11-13T12:02:37.854Z,3.13
2018-11-13T12:05:06.926Z,10.10
2018-11-13T12:07:35.632Z,3.70
2018-11-13T12:10:04.487Z,5.93
2018-11-13T12:12:32.863Z,20.67
2018-11-13T12:15:01.176Z,9.23
2018-11-13T12:17:29.396Z,5.30
2018-11-13T12:19:57.608Z,4.60
2018-11-13T12:22:25.786Z,2.93
2018-11-13T12:24:54.192Z,3.17
2018-11-13T12:27:22.471Z,3.67
2018-11-13T12:29:50.770Z,0.80
2018-11-13T12:32:19.010Z,0.87
2018-11-13T12:34:47.369Z,1.20
2018-11-13T12:37:15.540Z,1.23
2018-11-13T12:39:43.997Z,0.53
2018-11-13T12:42:12.330Z,0.60
2018-11-13T12:44:40.570Z,0.20
2018-11-13T12:47:09.012Z,0.53
2018-11-13T12:49:37.327Z,0.70
2018-11-13T12:52:11.125Z,0.40
2018-11-13T12:54:39.403Z,0.67
2018-11-13T12:57:07.648Z,2.00
2018-11-13T12:59:36.122Z,0.77
2018-11-13T13:02:04.940Z,0.33
2018-11-13T13:04:33.084Z,0.27
2018-11-13T13:07:01.358Z,0.50
2018-11-13T13:09:29.754Z,0.50
2018-11-13T13:11:58.159Z,0.73
2018-11-13T13:14:26.431Z,0.70
2018-11-13T13:16:54.865Z,0.90
2018-11-13T13:19:23.287Z,1.23
2018-11-13T13:21:51.663Z,1.07
2018-11-13T13:24:20.914Z,1.73
2018-11-13T13:26:49.232Z,0.60
2018-11-13T13:29:17.739Z,0.90
2018-11-13T13:31:46.062Z,0.63
2018-11-13T13:34:14.263Z,0.40
2018-11-13T13:36:42.620Z,0.63
2018-11-13T13:39:11.032Z,0.70
2018-11-13T13:41:39.360Z,2.00
2018-11-13T13:44:08.143Z,0.70
2018-11-13T13:46:36.427Z,1.93
2018-11-13T13:49:05.312Z,3.93
2018-11-13T13:51:33.584Z,0.73
2018-11-13T13:54:02.184Z,4.07
2018-11-13T13:56:30.329Z,15.80
2018-11-13T13:58:58.601Z,22.07
2018-11-13T14:01:26.848Z,8.67
2018-11-13T14:03:55.105Z,4.10
2018-11-13T14:06:23.799Z,4.60
2018-11-13T14:08:52.310Z,15.57
2018-11-13T14:11:21.485Z,8.90
2018-11-13T14:13:50.252Z,1.87
2018-11-13T14:16:19.392Z,3.73
2018-11-13T14:18:48.677Z,9.13
2018-11-13T14:21:17.920Z,1.80
2018-11-13T14:23:47.071Z,0.40
2018-11-13T14:26:16.133Z,0.50
2018-11-13T14:28:44.957Z,1.60
2018-11-13T14:31:13.623Z,1.20
2018-11-13T14:33:43.341Z,3.03
2018-11-13T14:36:12.334Z,1.67
2018-11-13T14:38:41.521Z,8.63
2018-11-13T14:41:11.599Z,0.83
2018-11-13T14:43:40.852Z,1.00
2018-11-13T14:46:10.237Z,2.50
2018-11-13T14:48:41.755Z,1.77
2018-11-13T14:51:10.812Z,6.17
2018-11-13T14:53:39.715Z,1.50
2018-11-13T14:56:08.589Z,1.40
2018-11-13T14:58:36.827Z,1.90
2018-11-13T15:01:06.509Z,2.60
2018-11-13T15:03:35.346Z,3.07
2018-11-13T15:06:03.744Z,4.37
2018-11-13T15:08:31.963Z,7.50
2018-11-13T15:11:00.166Z,7.10
2018-11-13T15:13:28.594Z,7.67
2018-11-13T15:15:57.088Z,16.43
2018-11-13T15:18:25.703Z,6.63
2018-11-13T15:20:53.983Z,2.90
2018-11-13T15:23:22.211Z,3.77
2018-11-13T15:25:50.412Z,2.20
2018-11-13T15:28:19.626Z,1.37
2018-11-13T15:30:49.451Z,0.77
2018-11-13T15:33:19.300Z,1.53
2018-11-13T15:35:47.973Z,5.37
2018-11-13T15:38:16.207Z,2.87
2018-11-13T15:40:44.697Z,1.63
2018-11-13T15:43:12.939Z,1.70
2018-11-13T15:45:41.413Z,1.73
2018-11-13T15:48:11.124Z,5.77
2018-11-13T15:50:39.872Z,5.10
2018-11-13T15:53:08.355Z,7.00
2018-11-13T15:55:36.829Z,10.30
2018-11-13T15:58:05.719Z,8.80
2018-11-13T16:00:35.416Z,7.00
2018-11-13T16:03:09.553Z,8.23
2018-11-13T16:05:40.583Z,15.13
2018-11-13T16:08:09.354Z,13.30
2018-11-13T16:10:38.109Z,16.03
2018-11-13T16:13:06.713Z,12.73
2018-11-13T16:15:34.945Z,11.10
2018-11-13T16:18:05.394Z,5.57
2018-11-13T16:20:33.644Z,3.50
2018-11-13T16:23:02.318Z,4.73
2018-11-13T16:25:31.174Z,7.83
2018-11-13T16:28:00.796Z,5.83
2018-11-13T16:30:30.676Z,3.07
2018-11-13T16:32:59.091Z,10.03
2018-11-13T16:35:28.373Z,12.20
2018-11-13T16:37:58.145Z,15.67
2018-11-13T16:40:28.147Z,10.63
2018-11-13T16:42:56.449Z,6.30
2018-11-13T16:45:25.959Z,4.47
2018-11-13T16:47:54.639Z,3.93
2018-11-13T16:50:29.061Z,13.17
2018-11-13T16:52:57.626Z,10.27
2018-11-13T16:55:31.412Z,6.30
2018-11-13T16:58:00.554Z,5.27
2018-11-13T17:00:28.943Z,4.87
2018-11-13T17:02:57.289Z,6.83
2018-11-13T17:05:26.214Z,9.47
2018-11-13T17:07:54.384Z,11.20
2018-11-13T17:10:24.335Z,10.37
2018-11-13T17:12:54.421Z,17.13
2018-11-13T17:15:24.618Z,12.20
2018-11-13T17:17:54.347Z,10.50
2018-11-13T17:20:23.327Z,15.90
2018-11-13T17:22:52.543Z,16.70
2018-11-13T17:25:30.100Z,8.27
2018-11-13T17:27:58.944Z,10.80
2018-11-13T17:30:28.604Z,8.67
2018-11-13T17:32:58.063Z,8.77
2018-11-13T17:35:27.755Z,5.80
2018-11-13T17:37:56.599Z,6.07
2018-11-13T17:40:26.349Z,9.27
2018-11-13T17:42:56.869Z,5.77
2018-11-13T17:45:26.892Z,5.50
2018-11-13T17:47:55.869Z,5.83
2018-11-13T17:50:34.725Z,6.47
2018-11-13T17:53:04.132Z,6.10
2018-11-13T17:55:32.968Z,5.60
2018-11-13T17:58:03.692Z,6.67
2018-11-13T18:00:34.984Z,8.50
2018-11-13T18:03:05.067Z,25.60
2018-11-13T18:05:34.450Z,25.57
2018-11-13T18:08:03.343Z,9.23
2018-11-13T18:10:33.271Z,9.67
2018-11-13T18:13:02.461Z,7.77
2018-11-13T18:15:31.461Z,7.13
2018-11-13T18:18:00.308Z,5.30
2018-11-13T18:20:30.968Z,7.00
2018-11-13T18:22:59.655Z,7.67
2018-11-13T18:25:28.502Z,5.83
2018-11-13T18:27:57.749Z,40.33
2018-11-13T18:30:28.891Z,37.00
2018-11-13T18:32:59.055Z,30.77
2018-11-13T18:35:28.879Z,27.43
2018-11-13T18:37:58.365Z,27.50
2018-11-13T18:40:27.169Z,25.03
2018-11-13T18:42:56.776Z,26.87
2018-11-13T18:45:29.359Z,25.40
2018-11-13T18:47:57.894Z,23.00
2018-11-13T18:50:27.525Z,24.30
2018-11-13T18:52:56.219Z,71.57
2018-11-13T18:55:24.847Z,48.20
2018-11-13T18:57:53.791Z,26.53
2018-11-13T19:00:29.538Z,33.10
2018-11-13T19:02:59.607Z,32.40
2018-11-13T19:05:28.779Z,23.73
2018-11-13T19:07:58.821Z,21.93
2018-11-13T19:10:36.073Z,16.83
2018-11-13T19:13:07.542Z,15.83
2018-11-13T19:15:37.898Z,11.73
2018-11-13T19:18:08.375Z,17.67
2018-11-13T19:20:36.927Z,19.27
2018-11-13T19:23:06.343Z,34.37
2018-11-13T19:25:35.155Z,31.63
2018-11-13T19:28:03.800Z,27.40
2018-11-13T19:30:32.204Z,25.93
2018-11-13T19:33:00.587Z,32.37
2018-11-13T19:35:29.518Z,21.47
2018-11-13T19:37:57.750Z,33.33
2018-11-13T19:40:27.619Z,35.53
2018-11-13T19:42:56.736Z,22.73
2018-11-13T19:45:26.471Z,15.97
2018-11-13T19:47:55.594Z,13.03
2018-11-13T19:50:26.793Z,10.80
2018-11-13T19:52:55.641Z,10.83
2018-11-13T19:55:24.771Z,11.37
2018-11-13T19:57:53.051Z,11.83
2018-11-13T20:00:22.959Z,11.93
2018-11-13T20:02:52.159Z,15.57
2018-11-13T20:05:21.786Z,15.47
2018-11-13T20:07:50.643Z,16.20
2018-11-13T20:10:21.124Z,23.87
2018-11-13T20:12:50.324Z,21.47
2018-11-13T20:15:19.948Z,23.13
2018-11-13T20:17:48.782Z,14.40
2018-11-13T20:20:20.898Z,15.13
2018-11-13T20:22:50.245Z,11.57
2018-11-13T20:25:20.106Z,12.53
2018-11-13T20:27:49.329Z,9.93
2018-11-13T20:30:20.185Z,9.97
2018-11-13T20:32:48.968Z,11.60
2018-11-13T20:35:18.499Z,9.37
2018-11-13T20:37:49.451Z,11.03
2018-11-13T20:40:19.125Z,15.20
2018-11-13T20:42:50.059Z,16.93
2018-11-13T20:45:19.935Z,32.53
2018-11-13T20:47:48.198Z,41.77
2018-11-13T20:50:18.886Z,30.03
2018-11-13T20:52:47.304Z,25.63
2018-11-13T20:55:15.695Z,24.60
2018-11-13T20:57:43.945Z,23.80
2018-11-13T21:00:16.850Z,25.57
2018-11-13T21:02:45.676Z,24.30
2018-11-13T21:05:14.924Z,26.83
2018-11-13T21:07:44.282Z,29.10
2018-11-13T21:10:19.718Z,22.63
2018-11-13T21:12:48.657Z,20.13
2018-11-13T21:15:19.298Z,21.47
2018-11-13T21:17:48.269Z,27.67
2018-11-13T21:20:17.492Z,33.00
2018-11-13T21:22:46.086Z,33.13
2018-11-13T21:25:16.761Z,31.50
2018-11-13T21:27:45.039Z,25.70
2018-11-13T21:30:15.405Z,26.33
2018-11-13T21:32:44.668Z,23.30
2018-11-13T21:35:14.072Z,20.03
2018-11-13T21:37:44.341Z,22.97
2018-11-13T21:40:17.711Z,21.80
2018-11-13T21:42:47.839Z,40.93
2018-11-13T21:45:17.664Z,38.43
2018-11-13T21:47:46.248Z,34.87
2018-11-13T21:50:16.935Z,29.00
2018-11-13T21:52:45.909Z,27.03
2018-11-13T21:55:15.943Z,26.17
2018-11-13T21:57:44.625Z,22.47
2018-11-13T22:00:16.923Z,21.27
2018-11-13T22:02:47.418Z,20.53
2018-11-13T22:05:18.354Z,19.17
2018-11-13T22:07:48.064Z,20.47
2018-11-13T22:10:17.856Z,22.77
2018-11-13T22:12:47.275Z,19.97
2018-11-13T22:15:17.375Z,15.63
2018-11-13T22:17:47.347Z,13.83
2018-11-13T22:20:17.258Z,14.27
2018-11-13T22:22:47.035Z,12.43
2018-11-13T22:25:18.623Z,11.10
2018-11-13T22:27:49.449Z,13.47
2018-11-13T22:30:20.143Z,12.13
2018-11-13T22:32:49.599Z,13.47
2018-11-13T22:35:19.062Z,14.10
2018-11-13T22:37:48.281Z,19.43
2018-11-13T22:40:18.052Z,15.50
2018-11-13T22:42:49.673Z,16.53
2018-11-13T22:45:25.549Z,15.33
2018-11-13T22:47:54.239Z,11.30
2018-11-13T22:50:34.369Z,10.47
2018-11-13T22:53:03.028Z,8.40
2018-11-13T22:55:31.450Z,11.70
2018-11-13T22:58:00.965Z,10.17
2018-11-13T23:00:37.302Z,11.80
2018-11-13T23:03:07.034Z,13.20
2018-11-13T23:05:35.517Z,8.73
2018-11-13T23:08:03.825Z,9.47
2018-11-13T23:10:32.770Z,6.47
2018-11-13T23:13:02.291Z,7.50
2018-11-13T23:15:30.927Z,8.47
2018-11-13T23:17:59.467Z,6.47
2018-11-13T23:20:28.159Z,10.23
2018-11-13T23:22:57.002Z,17.30
2018-11-13T23:25:25.575Z,13.03
2018-11-13T23:27:54.660Z,15.97
2018-11-13T23:30:24.946Z,10.90
2018-11-13T23:32:54.279Z,15.13
2018-11-13T23:35:23.335Z,17.77
2018-11-13T23:37:56.492Z,16.00
2018-11-13T23:40:26.130Z,18.00
2018-11-13T23:42:54.626Z,15.10
2018-11-13T23:45:24.418Z,13.47
2018-11-13T23:47:53.368Z,11.50
2018-11-13T23:50:21.909Z,10.30
2018-11-13T23:52:50.977Z,16.33
2018-11-13T23:55:19.321Z,30.77
2018-11-13T23:57:48.189Z,27.60
